sensor_id;sensor_type;location;lat;lon;timestamp;temperature;humidity
14357;DHT22;7262;48.764;9.166;2023-03-21T00:02:09;9.90;99.90
14357;DHT22;7262;48.764;9.166;2023-03-21T00:04:36;9.90;99.90
14357;DHT22;7262;48.764;9.166;2023-03-21T00:07:05;9.90;99.90
14357;DHT22;7262;48.764;9.166;2023-03-21T00:09:33;10.00;99.90
14357;DHT22;7262;48.764;9.166;2023-03-21T00:12:04;10.00;99.90
14357;DHT22;7262;48.764;9.166;2023-03-21T00:14:35;9.90;99.90
14357;DHT22;7262;48.764;9.166;2023-03-21T00:17:02;9.90;99.90
14357;DHT22;7262;48.764;9.166;2023-03-21T00:19:29;9.90;99.90
14357;DHT22;7262;48.764;9.166;2023-03-21T00:21:56;9.90;99.90
14357;DHT22;7262;48.764;9.166;2023-03-21T00:24:23;9.90;99.90
14357;DHT22;7262;48.764;9.166;2023-03-21T00:26:50;10.00;99.90
14357;DHT22;7262;48.764;9.166;2023-03-21T00:29:18;9.90;99.90
14357;DHT22;7262;48.764;9.166;2023-03-21T00:31:45;9.90;99.90
14357;DHT22;7262;48.764;9.166;2023-03-21T00:34:12;9.90;99.90
14357;DHT22;7262;48.764;9.166;2023-03-21T00:36:43;9.90;99.90
14357;DHT22;7262;48.764;9.166;2023-03-21T00:39:09;9.90;99.90
14357;DHT22;7262;48.764;9.166;2023-03-21T00:41:38;9.90;99.90
14357;DHT22;7262;48.764;9.166;2023-03-21T00:44:05;10.00;99.90
14357;DHT22;7262;48.764;9.166;2023-03-21T00:46:34;9.90;99.90
14357;DHT22;7262;48.764;9.166;2023-03-21T00:49:02;9.90;99.90
14357;DHT22;7262;48.764;9.166;2023-03-21T00:51:29;9.90;99.90
14357;DHT22;7262;48.764;9.166;2023-03-21T00:53:57;9.80;99.90
14357;DHT22;7262;48.764;9.166;2023-03-21T00:56:24;9.90;99.90
14357;DHT22;7262;48.764;9.166;2023-03-21T00:58:50;9.90;99.90
14357;DHT22;7262;48.764;9.166;2023-03-21T01:01:17;9.80;99.90
14357;DHT22;7262;48.764;9.166;2023-03-21T01:03:48;9.90;99.90
14357;DHT22;7262;48.764;9.166;2023-03-21T01:06:29;9.90;99.90
14357;DHT22;7262;48.764;9.166;2023-03-21T01:08:56;9.90;99.90
14357;DHT22;7262;48.764;9.166;2023-03-21T01:11:26;9.90;99.90
14357;DHT22;7262;48.764;9.166;2023-03-21T01:13:53;9.90;99.90
14357;DHT22;7262;48.764;9.166;2023-03-21T01:16:21;9.90;99.90
14357;DHT22;7262;48.764;9.166;2023-03-21T01:18:49;9.90;99.90
14357;DHT22;7262;48.764;9.166;2023-03-21T01:21:16;9.90;99.90
14357;DHT22;7262;48.764;9.166;2023-03-21T01:23:43;9.90;99.90
14357;DHT22;7262;48.764;9.166;2023-03-21T01:26:10;9.80;99.90
14357;DHT22;7262;48.764;9.166;2023-03-21T01:28:39;9.80;99.90
14357;DHT22;7262;48.764;9.166;2023-03-21T01:31:06;9.80;99.90
14357;DHT22;7262;48.764;9.166;2023-03-21T01:33:34;9.70;99.90
14357;DHT22;7262;48.764;9.166;2023-03-21T01:36:03;9.70;99.90
14357;DHT22;7262;48.764;9.166;2023-03-21T01:38:30;9.70;99.90
14357;DHT22;7262;48.764;9.166;2023-03-21T01:40:58;9.80;99.90
14357;DHT22;7262;48.764;9.166;2023-03-21T01:43:26;9.80;99.90
14357;DHT22;7262;48.764;9.166;2023-03-21T01:48:45;9.80;99.90
14357;DHT22;7262;48.764;9.166;2023-03-21T01:51:16;9.80;99.90
14357;DHT22;7262;48.764;9.166;2023-03-21T01:53:43;9.80;99.90
14357;DHT22;7262;48.764;9.166;2023-03-21T01:56:11;9.80;99.90
14357;DHT22;7262;48.764;9.166;2023-03-21T01:58:42;9.80;99.90
14357;DHT22;7262;48.764;9.166;2023-03-21T02:01:19;9.90;99.90
14357;DHT22;7262;48.764;9.166;2023-03-21T02:03:47;9.80;99.90
14357;DHT22;7262;48.764;9.166;2023-03-21T02:06:26;9.80;99.90
14357;DHT22;7262;48.764;9.166;2023-03-21T02:08:59;9.80;99.90
14357;DHT22;7262;48.764;9.166;2023-03-21T02:11:28;9.80;99.90
14357;DHT22;7262;48.764;9.166;2023-03-21T02:13:56;9.80;99.90
14357;DHT22;7262;48.764;9.166;2023-03-21T02:16:25;9.70;99.90
14357;DHT22;7262;48.764;9.166;2023-03-21T02:18:55;9.70;99.90
14357;DHT22;7262;48.764;9.166;2023-03-21T02:21:49;9.70;99.90
14357;DHT22;7262;48.764;9.166;2023-03-21T02:24:29;9.60;99.90
14357;DHT22;7262;48.764;9.166;2023-03-21T02:27:10;9.60;99.90
14357;DHT22;7262;48.764;9.166;2023-03-21T02:29:43;9.60;99.90
14357;DHT22;7262;48.764;9.166;2023-03-21T02:32:17;9.60;99.90
14357;DHT22;7262;48.764;9.166;2023-03-21T02:37:45;9.60;99.90
14357;DHT22;7262;48.764;9.166;2023-03-21T02:40:15;9.60;99.90
14357;DHT22;7262;48.764;9.166;2023-03-21T02:42:46;9.60;99.90
14357;DHT22;7262;48.764;9.166;2023-03-21T02:45:15;9.50;99.90
14357;DHT22;7262;48.764;9.166;2023-03-21T02:47:43;9.50;99.90
14357;DHT22;7262;48.764;9.166;2023-03-21T02:50:13;9.50;99.90
14357;DHT22;7262;48.764;9.166;2023-03-21T02:52:44;9.50;99.90
14357;DHT22;7262;48.764;9.166;2023-03-21T02:55:13;9.40;99.90
14357;DHT22;7262;48.764;9.166;2023-03-21T02:57:40;9.40;99.90
14357;DHT22;7262;48.764;9.166;2023-03-21T03:00:09;9.40;99.90
14357;DHT22;7262;48.764;9.166;2023-03-21T03:02:39;9.40;99.90
14357;DHT22;7262;48.764;9.166;2023-03-21T03:05:13;9.40;99.90
14357;DHT22;7262;48.764;9.166;2023-03-21T03:07:45;9.40;99.90
14357;DHT22;7262;48.764;9.166;2023-03-21T03:10:20;9.40;99.90
14357;DHT22;7262;48.764;9.166;2023-03-21T03:12:53;9.30;99.90
14357;DHT22;7262;48.764;9.166;2023-03-21T03:15:23;9.30;99.90
14357;DHT22;7262;48.764;9.166;2023-03-21T03:17:58;9.30;99.90
14357;DHT22;7262;48.764;9.166;2023-03-21T03:20:28;9.30;99.90
14357;DHT22;7262;48.764;9.166;2023-03-21T03:23:02;9.30;99.90
14357;DHT22;7262;48.764;9.166;2023-03-21T03:25:31;9.30;99.90
14357;DHT22;7262;48.764;9.166;2023-03-21T03:28:01;9.30;99.90
14357;DHT22;7262;48.764;9.166;2023-03-21T03:30:30;9.30;99.90
14357;DHT22;7262;48.764;9.166;2023-03-21T03:32:58;9.30;99.90
14357;DHT22;7262;48.764;9.166;2023-03-21T03:35:26;9.30;99.90
14357;DHT22;7262;48.764;9.166;2023-03-21T03:37:54;9.30;99.90
14357;DHT22;7262;48.764;9.166;2023-03-21T03:40:28;9.30;99.90
14357;DHT22;7262;48.764;9.166;2023-03-21T03:42:57;9.30;99.90
14357;DHT22;7262;48.764;9.166;2023-03-21T03:45:27;9.30;99.90
14357;DHT22;7262;48.764;9.166;2023-03-21T03:47:57;9.30;99.90
14357;DHT22;7262;48.764;9.166;2023-03-21T03:50:27;9.30;99.90
14357;DHT22;7262;48.764;9.166;2023-03-21T03:52:56;9.30;99.90
14357;DHT22;7262;48.764;9.166;2023-03-21T03:55:26;9.30;99.90
14357;DHT22;7262;48.764;9.166;2023-03-21T03:57:59;9.30;99.90
14357;DHT22;7262;48.764;9.166;2023-03-21T04:00:26;9.30;99.90
14357;DHT22;7262;48.764;9.166;2023-03-21T04:02:53;9.30;99.90
14357;DHT22;7262;48.764;9.166;2023-03-21T04:05:20;9.20;99.90
14357;DHT22;7262;48.764;9.166;2023-03-21T04:07:46;9.20;99.90
14357;DHT22;7262;48.764;9.166;2023-03-21T04:10:15;9.10;99.90
14357;DHT22;7262;48.764;9.166;2023-03-21T04:12:43;9.10;99.90
14357;DHT22;7262;48.764;9.166;2023-03-21T04:25:32;9.10;99.90
14357;DHT22;7262;48.764;9.166;2023-03-21T04:28:00;9.00;99.90
14357;DHT22;7262;48.764;9.166;2023-03-21T04:30:29;9.00;99.90
14357;DHT22;7262;48.764;9.166;2023-03-21T04:32:58;8.90;99.90
14357;DHT22;7262;48.764;9.166;2023-03-21T04:35:26;8.90;99.90
14357;DHT22;7262;48.764;9.166;2023-03-21T04:37:52;8.90;99.90
14357;DHT22;7262;48.764;9.166;2023-03-21T04:43:05;8.70;99.90
14357;DHT22;7262;48.764;9.166;2023-03-21T04:48:08;8.60;99.90
14357;DHT22;7262;48.764;9.166;2023-03-21T04:50:38;8.60;99.90
14357;DHT22;7262;48.764;9.166;2023-03-21T04:53:05;8.50;99.90
14357;DHT22;7262;48.764;9.166;2023-03-21T04:55:32;8.40;99.90
14357;DHT22;7262;48.764;9.166;2023-03-21T04:57:58;8.40;99.90
14357;DHT22;7262;48.764;9.166;2023-03-21T05:00:27;8.30;99.90
14357;DHT22;7262;48.764;9.166;2023-03-21T05:02:54;8.30;99.90
14357;DHT22;7262;48.764;9.166;2023-03-21T05:05:22;8.30;99.90
14357;DHT22;7262;48.764;9.166;2023-03-21T05:07:49;8.30;99.90
14357;DHT22;7262;48.764;9.166;2023-03-21T05:10:18;8.30;99.90
14357;DHT22;7262;48.764;9.166;2023-03-21T05:12:45;8.10;99.90
14357;DHT22;7262;48.764;9.166;2023-03-21T05:15:12;8.20;99.90
14357;DHT22;7262;48.764;9.166;2023-03-21T05:20:18;8.20;99.90
14357;DHT22;7262;48.764;9.166;2023-03-21T05:22:45;8.20;99.90
14357;DHT22;7262;48.764;9.166;2023-03-21T05:25:15;8.10;99.90
14357;DHT22;7262;48.764;9.166;2023-03-21T05:27:59;8.00;99.90
14357;DHT22;7262;48.764;9.166;2023-03-21T05:30:27;8.00;99.90
14357;DHT22;7262;48.764;9.166;2023-03-21T05:32:54;8.00;99.90
14357;DHT22;7262;48.764;9.166;2023-03-21T05:35:23;8.00;99.90
14357;DHT22;7262;48.764;9.166;2023-03-21T05:37:50;8.10;99.90
14357;DHT22;7262;48.764;9.166;2023-03-21T05:40:19;8.00;99.90
14357;DHT22;7262;48.764;9.166;2023-03-21T05:42:48;8.00;99.90
14357;DHT22;7262;48.764;9.166;2023-03-21T05:45:15;8.20;99.90
14357;DHT22;7262;48.764;9.166;2023-03-21T05:47:46;8.20;99.90
14357;DHT22;7262;48.764;9.166;2023-03-21T05:50:15;8.20;99.90
14357;DHT22;7262;48.764;9.166;2023-03-21T05:52:46;8.10;99.90
14357;DHT22;7262;48.764;9.166;2023-03-21T06:08:12;8.20;99.90
14357;DHT22;7262;48.764;9.166;2023-03-21T06:13:15;8.30;99.90
14357;DHT22;7262;48.764;9.166;2023-03-21T06:20:52;8.50;99.90
14357;DHT22;7262;48.764;9.166;2023-03-21T06:51:52;9.10;99.90
14357;DHT22;7262;48.764;9.166;2023-03-21T07:28:00;11.30;99.90
14357;DHT22;7262;48.764;9.166;2023-03-21T07:30:27;11.60;99.90
14357;DHT22;7262;48.764;9.166;2023-03-21T07:32:54;11.80;99.90
14357;DHT22;7262;48.764;9.166;2023-03-21T07:35:22;12.10;99.90
14357;DHT22;7262;48.764;9.166;2023-03-21T07:37:49;12.20;99.90
14357;DHT22;7262;48.764;9.166;2023-03-21T07:40:16;12.50;99.90
14357;DHT22;7262;48.764;9.166;2023-03-21T07:42:42;12.60;99.90
14357;DHT22;7262;48.764;9.166;2023-03-21T07:45:11;12.90;99.90
14357;DHT22;7262;48.764;9.166;2023-03-21T07:47:40;13.10;99.90
14357;DHT22;7262;48.764;9.166;2023-03-21T07:50:07;13.40;99.90
14357;DHT22;7262;48.764;9.166;2023-03-21T07:52:34;13.90;99.90
14357;DHT22;7262;48.764;9.166;2023-03-21T07:55:01;15.30;99.90
14357;DHT22;7262;48.764;9.166;2023-03-21T07:57:28;17.10;99.90
14357;DHT22;7262;48.764;9.166;2023-03-21T07:59:56;17.90;99.90
14357;DHT22;7262;48.764;9.166;2023-03-21T08:02:24;17.70;99.90
14357;DHT22;7262;48.764;9.166;2023-03-21T08:04:51;17.90;99.90
14357;DHT22;7262;48.764;9.166;2023-03-21T08:07:19;17.70;99.90
14357;DHT22;7262;48.764;9.166;2023-03-21T08:09:46;18.10;99.90
14357;DHT22;7262;48.764;9.166;2023-03-21T08:12:13;19.40;99.90
14357;DHT22;7262;48.764;9.166;2023-03-21T08:14:40;20.30;99.90
14357;DHT22;7262;48.764;9.166;2023-03-21T08:17:06;20.90;99.90
14357;DHT22;7262;48.764;9.166;2023-03-21T08:19:36;21.10;99.90
14357;DHT22;7262;48.764;9.166;2023-03-21T08:22:02;21.50;99.90
14357;DHT22;7262;48.764;9.166;2023-03-21T08:24:31;21.70;99.90
14357;DHT22;7262;48.764;9.166;2023-03-21T08:26:58;21.70;99.90
14357;DHT22;7262;48.764;9.166;2023-03-21T08:29:26;21.60;99.90
14357;DHT22;7262;48.764;9.166;2023-03-21T08:31:53;21.80;99.90
14357;DHT22;7262;48.764;9.166;2023-03-21T08:34:22;22.50;99.90
14357;DHT22;7262;48.764;9.166;2023-03-21T08:36:50;22.20;99.90
14357;DHT22;7262;48.764;9.166;2023-03-21T08:39:17;22.70;99.90
14357;DHT22;7262;48.764;9.166;2023-03-21T08:41:46;23.50;99.90
14357;DHT22;7262;48.764;9.166;2023-03-21T08:44:12;23.10;99.90
14357;DHT22;7262;48.764;9.166;2023-03-21T08:46:41;22.40;99.90
14357;DHT22;7262;48.764;9.166;2023-03-21T08:49:10;22.30;99.90
14357;DHT22;7262;48.764;9.166;2023-03-21T08:51:37;23.00;99.90
14357;DHT22;7262;48.764;9.166;2023-03-21T08:54:06;23.50;99.90
14357;DHT22;7262;48.764;9.166;2023-03-21T08:56:33;23.80;99.40
14357;DHT22;7262;48.764;9.166;2023-03-21T08:59:00;24.00;98.10
14357;DHT22;7262;48.764;9.166;2023-03-21T09:01:28;23.80;96.60
14357;DHT22;7262;48.764;9.166;2023-03-21T09:03:55;23.70;96.60
14357;DHT22;7262;48.764;9.166;2023-03-21T09:06:24;23.00;96.40
14357;DHT22;7262;48.764;9.166;2023-03-21T09:08:51;22.70;95.70
14357;DHT22;7262;48.764;9.166;2023-03-21T09:11:22;22.40;96.40
14357;DHT22;7262;48.764;9.166;2023-03-21T09:13:49;22.50;96.90
14357;DHT22;7262;48.764;9.166;2023-03-21T09:16:16;23.10;95.80
14357;DHT22;7262;48.764;9.166;2023-03-21T09:18:44;23.20;95.60
14357;DHT22;7262;48.764;9.166;2023-03-21T09:21:15;23.20;95.40
14357;DHT22;7262;48.764;9.166;2023-03-21T09:23:44;22.00;96.70
14357;DHT22;7262;48.764;9.166;2023-03-21T09:26:13;22.50;96.80
14357;DHT22;7262;48.764;9.166;2023-03-21T09:52:00;22.90;94.80
14357;DHT22;7262;48.764;9.166;2023-03-21T09:54:30;22.30;95.20
14357;DHT22;7262;48.764;9.166;2023-03-21T09:57:00;22.50;95.60
14357;DHT22;7262;48.764;9.166;2023-03-21T09:59:31;22.40;95.60
14357;DHT22;7262;48.764;9.166;2023-03-21T10:02:01;22.40;95.50
14357;DHT22;7262;48.764;9.166;2023-03-21T10:04:28;21.70;97.10
14357;DHT22;7262;48.764;9.166;2023-03-21T10:06:58;21.60;97.90
14357;DHT22;7262;48.764;9.166;2023-03-21T10:09:27;21.60;98.10
14357;DHT22;7262;48.764;9.166;2023-03-21T10:11:55;21.00;98.70
14357;DHT22;7262;48.764;9.166;2023-03-21T10:14:24;20.50;99.50
14357;DHT22;7262;48.764;9.166;2023-03-21T10:16:55;20.20;99.90
14357;DHT22;7262;48.764;9.166;2023-03-21T10:19:23;20.20;99.90
14357;DHT22;7262;48.764;9.166;2023-03-21T10:21:52;20.40;99.90
14357;DHT22;7262;48.764;9.166;2023-03-21T10:24:20;21.00;99.90
14357;DHT22;7262;48.764;9.166;2023-03-21T10:26:52;21.90;99.40
14357;DHT22;7262;48.764;9.166;2023-03-21T11:48:59;18.40;99.90
14357;DHT22;7262;48.764;9.166;2023-03-21T12:10:43;18.20;99.90
14357;DHT22;7262;48.764;9.166;2023-03-21T12:15:48;18.20;99.90
14357;DHT22;7262;48.764;9.166;2023-03-21T12:18:30;18.00;99.90
14357;DHT22;7262;48.764;9.166;2023-03-21T12:23:41;18.00;99.90
14357;DHT22;7262;48.764;9.166;2023-03-21T12:26:16;17.90;99.90
14357;DHT22;7262;48.764;9.166;2023-03-21T12:54:43;19.30;99.90
14357;DHT22;7262;48.764;9.166;2023-03-21T12:57:14;19.80;99.90
14357;DHT22;7262;48.764;9.166;2023-03-21T12:59:45;20.10;99.60
14357;DHT22;7262;48.764;9.166;2023-03-21T13:02:15;20.20;98.20
14357;DHT22;7262;48.764;9.166;2023-03-21T13:04:44;20.90;97.50
14357;DHT22;7262;48.764;9.166;2023-03-21T13:07:16;21.40;96.20
14357;DHT22;7262;48.764;9.166;2023-03-21T13:09:45;21.50;95.10
14357;DHT22;7262;48.764;9.166;2023-03-21T13:12:16;21.80;94.80
14357;DHT22;7262;48.764;9.166;2023-03-21T13:14:49;21.70;94.80
14357;DHT22;7262;48.764;9.166;2023-03-21T13:17:19;21.40;95.30
14357;DHT22;7262;48.764;9.166;2023-03-21T13:19:49;20.30;96.70
14357;DHT22;7262;48.764;9.166;2023-03-21T13:22:19;20.20;96.10
14357;DHT22;7262;48.764;9.166;2023-03-21T13:24:56;20.30;95.50
14357;DHT22;7262;48.764;9.166;2023-03-21T13:27:25;20.10;96.10
14357;DHT22;7262;48.764;9.166;2023-03-21T13:29:59;19.90;95.00
14357;DHT22;7262;48.764;9.166;2023-03-21T13:32:27;19.60;95.20
14357;DHT22;7262;48.764;9.166;2023-03-21T13:34:55;19.30;95.30
14357;DHT22;7262;48.764;9.166;2023-03-21T13:37:23;19.30;95.90
14357;DHT22;7262;48.764;9.166;2023-03-21T13:39:52;19.20;95.10
14357;DHT22;7262;48.764;9.166;2023-03-21T13:42:28;19.20;95.40
14357;DHT22;7262;48.764;9.166;2023-03-21T13:44:56;18.90;96.30
14357;DHT22;7262;48.764;9.166;2023-03-21T13:47:30;18.90;96.80
14357;DHT22;7262;48.764;9.166;2023-03-21T13:53:08;18.80;95.70
14357;DHT22;7262;48.764;9.166;2023-03-21T13:55:41;18.90;94.90
14357;DHT22;7262;48.764;9.166;2023-03-21T13:58:21;18.90;95.30
14357;DHT22;7262;48.764;9.166;2023-03-21T14:01:00;19.30;95.10
14357;DHT22;7262;48.764;9.166;2023-03-21T14:03:33;19.30;94.60
14357;DHT22;7262;48.764;9.166;2023-03-21T14:06:00;19.40;94.30
14357;DHT22;7262;48.764;9.166;2023-03-21T14:08:27;19.40;94.10
14357;DHT22;7262;48.764;9.166;2023-03-21T14:10:59;19.30;93.70
14357;DHT22;7262;48.764;9.166;2023-03-21T14:13:30;19.20;93.40
14357;DHT22;7262;48.764;9.166;2023-03-21T14:16:03;19.10;93.00
14357;DHT22;7262;48.764;9.166;2023-03-21T14:18:38;19.10;93.80
14357;DHT22;7262;48.764;9.166;2023-03-21T14:21:12;18.90;96.90
14357;DHT22;7262;48.764;9.166;2023-03-21T14:23:40;18.80;99.90
14357;DHT22;7262;48.764;9.166;2023-03-21T14:36:30;18.00;99.90
14357;DHT22;7262;48.764;9.166;2023-03-21T14:39:03;18.10;99.90
14357;DHT22;7262;48.764;9.166;2023-03-21T14:41:32;18.20;99.90
14357;DHT22;7262;48.764;9.166;2023-03-21T14:44:02;18.10;99.90
14357;DHT22;7262;48.764;9.166;2023-03-21T14:46:37;18.00;99.90
14357;DHT22;7262;48.764;9.166;2023-03-21T14:49:13;18.00;99.90
14357;DHT22;7262;48.764;9.166;2023-03-21T14:51:46;18.10;99.90
14357;DHT22;7262;48.764;9.166;2023-03-21T14:54:14;18.20;99.90
14357;DHT22;7262;48.764;9.166;2023-03-21T14:56:43;18.10;99.90
14357;DHT22;7262;48.764;9.166;2023-03-21T14:59:13;18.00;99.90
14357;DHT22;7262;48.764;9.166;2023-03-21T15:06:51;18.40;99.90
14357;DHT22;7262;48.764;9.166;2023-03-21T15:09:21;18.10;99.90
14357;DHT22;7262;48.764;9.166;2023-03-21T15:17:03;18.50;99.90
14357;DHT22;7262;48.764;9.166;2023-03-21T15:19:34;18.60;99.90
14357;DHT22;7262;48.764;9.166;2023-03-21T15:22:05;18.70;99.90
14357;DHT22;7262;48.764;9.166;2023-03-21T15:24:35;19.10;99.90
14357;DHT22;7262;48.764;9.166;2023-03-21T15:27:04;19.70;99.90
14357;DHT22;7262;48.764;9.166;2023-03-21T15:29:31;19.90;99.90
14357;DHT22;7262;48.764;9.166;2023-03-21T15:32:04;19.90;99.90
14357;DHT22;7262;48.764;9.166;2023-03-21T15:37:16;19.50;99.90
14357;DHT22;7262;48.764;9.166;2023-03-21T15:42:23;18.30;99.90
14357;DHT22;7262;48.764;9.166;2023-03-21T15:44:56;17.60;99.90
14357;DHT22;7262;48.764;9.166;2023-03-21T15:47:39;17.50;99.90
14357;DHT22;7262;48.764;9.166;2023-03-21T15:50:07;17.20;99.90
14357;DHT22;7262;48.764;9.166;2023-03-21T15:55:17;16.70;99.90
14357;DHT22;7262;48.764;9.166;2023-03-21T16:26:16;15.50;99.90
14357;DHT22;7262;48.764;9.166;2023-03-21T16:45:11;15.00;99.90
14357;DHT22;7262;48.764;9.166;2023-03-21T16:52:50;14.70;99.90
14357;DHT22;7262;48.764;9.166;2023-03-21T17:13:29;14.60;99.90
14357;DHT22;7262;48.764;9.166;2023-03-21T17:21:09;14.60;99.90
14357;DHT22;7262;48.764;9.166;2023-03-21T17:23:39;14.50;99.90
14357;DHT22;7262;48.764;9.166;2023-03-21T17:36:36;14.30;99.90
14357;DHT22;7262;48.764;9.166;2023-03-21T17:39:06;14.30;99.90
14357;DHT22;7262;48.764;9.166;2023-03-21T17:41:38;14.30;99.90
14357;DHT22;7262;48.764;9.166;2023-03-21T17:46:41;14.20;99.90
14357;DHT22;7262;48.764;9.166;2023-03-21T17:49:09;14.20;99.90
14357;DHT22;7262;48.764;9.166;2023-03-21T17:51:40;14.30;99.90
14357;DHT22;7262;48.764;9.166;2023-03-21T17:54:11;14.20;99.90
14357;DHT22;7262;48.764;9.166;2023-03-21T17:56:37;14.20;99.90
14357;DHT22;7262;48.764;9.166;2023-03-21T17:59:10;14.20;99.90
14357;DHT22;7262;48.764;9.166;2023-03-21T18:01:37;14.20;99.90
14357;DHT22;7262;48.764;9.166;2023-03-21T18:04:04;14.10;99.90
14357;DHT22;7262;48.764;9.166;2023-03-21T18:06:32;14.10;99.90
14357;DHT22;7262;48.764;9.166;2023-03-21T18:09:03;14.10;99.90
14357;DHT22;7262;48.764;9.166;2023-03-21T18:11:36;14.10;99.90
14357;DHT22;7262;48.764;9.166;2023-03-21T18:14:05;14.20;99.90
14357;DHT22;7262;48.764;9.166;2023-03-21T18:16:33;14.10;99.90
14357;DHT22;7262;48.764;9.166;2023-03-21T18:19:00;14.10;99.90
14357;DHT22;7262;48.764;9.166;2023-03-21T18:21:28;14.10;99.90
14357;DHT22;7262;48.764;9.166;2023-03-21T18:24:04;14.00;99.90
14357;DHT22;7262;48.764;9.166;2023-03-21T18:26:31;14.00;99.90
14357;DHT22;7262;48.764;9.166;2023-03-21T18:31:33;14.00;99.90
14357;DHT22;7262;48.764;9.166;2023-03-21T18:34:01;14.00;99.90
14357;DHT22;7262;48.764;9.166;2023-03-21T18:36:28;14.00;99.90
14357;DHT22;7262;48.764;9.166;2023-03-21T18:41:32;14.00;99.90
14357;DHT22;7262;48.764;9.166;2023-03-21T18:44:02;14.00;99.90
14357;DHT22;7262;48.764;9.166;2023-03-21T18:46:34;13.90;99.90
14357;DHT22;7262;48.764;9.166;2023-03-21T18:49:01;13.90;99.90
14357;DHT22;7262;48.764;9.166;2023-03-21T18:51:33;13.90;99.90
14357;DHT22;7262;48.764;9.166;2023-03-21T18:59:30;13.80;99.90
14357;DHT22;7262;48.764;9.166;2023-03-21T19:01:58;13.90;99.90
14357;DHT22;7262;48.764;9.166;2023-03-21T19:04:25;13.80;99.90
14357;DHT22;7262;48.764;9.166;2023-03-21T19:06:52;13.80;99.90
14357;DHT22;7262;48.764;9.166;2023-03-21T19:09:19;13.80;99.90
14357;DHT22;7262;48.764;9.166;2023-03-21T19:11:46;13.70;99.90
14357;DHT22;7262;48.764;9.166;2023-03-21T19:14:14;13.80;99.90
14357;DHT22;7262;48.764;9.166;2023-03-21T19:16:42;13.70;99.90
14357;DHT22;7262;48.764;9.166;2023-03-21T19:19:09;13.60;99.90
14357;DHT22;7262;48.764;9.166;2023-03-21T19:21:36;13.70;99.90
14357;DHT22;7262;48.764;9.166;2023-03-21T19:24:03;13.60;99.90
14357;DHT22;7262;48.764;9.166;2023-03-21T19:26:32;13.60;99.90
14357;DHT22;7262;48.764;9.166;2023-03-21T19:28:59;13.60;99.90
14357;DHT22;7262;48.764;9.166;2023-03-21T19:31:27;13.60;99.90
14357;DHT22;7262;48.764;9.166;2023-03-21T19:33:55;13.50;99.90
14357;DHT22;7262;48.764;9.166;2023-03-21T19:36:27;13.50;99.90
14357;DHT22;7262;48.764;9.166;2023-03-21T19:38:56;13.40;99.90
14357;DHT22;7262;48.764;9.166;2023-03-21T19:41:51;13.50;99.90
14357;DHT22;7262;48.764;9.166;2023-03-21T19:47:02;13.40;99.90
14357;DHT22;7262;48.764;9.166;2023-03-21T19:49:47;13.50;99.90
14357;DHT22;7262;48.764;9.166;2023-03-21T19:52:20;13.30;99.90
14357;DHT22;7262;48.764;9.166;2023-03-21T19:55:07;13.30;99.90
14357;DHT22;7262;48.764;9.166;2023-03-21T19:57:40;13.20;99.90
14357;DHT22;7262;48.764;9.166;2023-03-21T20:00:09;13.30;99.90
14357;DHT22;7262;48.764;9.166;2023-03-21T20:02:40;13.20;99.90
14357;DHT22;7262;48.764;9.166;2023-03-21T20:05:14;13.30;99.90
14357;DHT22;7262;48.764;9.166;2023-03-21T20:07:42;13.20;99.90
14357;DHT22;7262;48.764;9.166;2023-03-21T20:10:13;13.00;99.90
14357;DHT22;7262;48.764;9.166;2023-03-21T20:12:48;13.00;99.90
14357;DHT22;7262;48.764;9.166;2023-03-21T20:15:15;13.10;99.90
14357;DHT22;7262;48.764;9.166;2023-03-21T20:17:42;13.10;99.90
14357;DHT22;7262;48.764;9.166;2023-03-21T20:20:12;13.10;99.90
14357;DHT22;7262;48.764;9.166;2023-03-21T20:22:45;13.10;99.90
14357;DHT22;7262;48.764;9.166;2023-03-21T20:25:29;13.10;99.90
14357;DHT22;7262;48.764;9.166;2023-03-21T20:27:58;13.10;99.90
14357;DHT22;7262;48.764;9.166;2023-03-21T20:30:25;13.00;99.90
14357;DHT22;7262;48.764;9.166;2023-03-21T20:33:01;13.00;99.90
14357;DHT22;7262;48.764;9.166;2023-03-21T20:35:30;13.00;99.90
14357;DHT22;7262;48.764;9.166;2023-03-21T20:37:57;13.00;99.90
14357;DHT22;7262;48.764;9.166;2023-03-21T20:40:26;13.00;99.90
14357;DHT22;7262;48.764;9.166;2023-03-21T20:42:52;12.90;99.90
14357;DHT22;7262;48.764;9.166;2023-03-21T20:45:20;12.80;99.90
14357;DHT22;7262;48.764;9.166;2023-03-21T20:47:47;12.90;99.90
14357;DHT22;7262;48.764;9.166;2023-03-21T20:50:15;12.80;99.90
14357;DHT22;7262;48.764;9.166;2023-03-21T20:52:48;12.80;99.90
14357;DHT22;7262;48.764;9.166;2023-03-21T20:55:17;12.70;99.90
14357;DHT22;7262;48.764;9.166;2023-03-21T20:57:44;12.80;99.90
14357;DHT22;7262;48.764;9.166;2023-03-21T21:00:12;12.60;99.90
14357;DHT22;7262;48.764;9.166;2023-03-21T21:02:43;12.60;99.90
14357;DHT22;7262;48.764;9.166;2023-03-21T21:05:11;12.60;99.90
14357;DHT22;7262;48.764;9.166;2023-03-21T21:07:39;12.60;99.90
14357;DHT22;7262;48.764;9.166;2023-03-21T21:10:09;12.60;99.90
14357;DHT22;7262;48.764;9.166;2023-03-21T21:12:38;12.60;99.90
14357;DHT22;7262;48.764;9.166;2023-03-21T21:15:10;12.70;99.90
14357;DHT22;7262;48.764;9.166;2023-03-21T21:17:41;12.60;99.90
14357;DHT22;7262;48.764;9.166;2023-03-21T21:20:10;12.60;99.90
14357;DHT22;7262;48.764;9.166;2023-03-21T21:22:42;12.50;99.90
14357;DHT22;7262;48.764;9.166;2023-03-21T21:25:18;12.50;99.90
14357;DHT22;7262;48.764;9.166;2023-03-21T21:27:45;12.50;99.90
14357;DHT22;7262;48.764;9.166;2023-03-21T21:30:12;12.50;99.90
14357;DHT22;7262;48.764;9.166;2023-03-21T21:32:41;12.40;99.90
14357;DHT22;7262;48.764;9.166;2023-03-21T21:35:09;12.40;99.90
14357;DHT22;7262;48.764;9.166;2023-03-21T21:37:47;12.30;99.90
14357;DHT22;7262;48.764;9.166;2023-03-21T21:40:15;12.30;99.90
14357;DHT22;7262;48.764;9.166;2023-03-21T21:42:50;12.30;99.90
14357;DHT22;7262;48.764;9.166;2023-03-21T21:45:18;12.20;99.90
14357;DHT22;7262;48.764;9.166;2023-03-21T21:47:48;12.20;99.90
14357;DHT22;7262;48.764;9.166;2023-03-21T21:50:15;12.20;99.90
14357;DHT22;7262;48.764;9.166;2023-03-21T21:52:43;12.10;99.90
14357;DHT22;7262;48.764;9.166;2023-03-21T21:55:17;12.20;99.90
14357;DHT22;7262;48.764;9.166;2023-03-21T21:58:00;12.20;99.90
14357;DHT22;7262;48.764;9.166;2023-03-21T22:00:41;12.00;99.90
14357;DHT22;7262;48.764;9.166;2023-03-21T22:03:13;12.10;99.90
14357;DHT22;7262;48.764;9.166;2023-03-21T22:05:52;12.20;99.90
14357;DHT22;7262;48.764;9.166;2023-03-21T22:08:57;12.10;99.90
14357;DHT22;7262;48.764;9.166;2023-03-21T22:16:48;12.00;99.90
14357;DHT22;7262;48.764;9.166;2023-03-21T22:19:16;12.00;99.90
14357;DHT22;7262;48.764;9.166;2023-03-21T22:21:44;12.00;99.90
14357;DHT22;7262;48.764;9.166;2023-03-21T22:24:11;11.90;99.90
14357;DHT22;7262;48.764;9.166;2023-03-21T22:26:41;11.90;99.90
14357;DHT22;7262;48.764;9.166;2023-03-21T22:29:08;11.80;99.90
14357;DHT22;7262;48.764;9.166;2023-03-21T22:31:36;11.80;99.90
14357;DHT22;7262;48.764;9.166;2023-03-21T22:34:08;11.80;99.90
14357;DHT22;7262;48.764;9.166;2023-03-21T22:36:39;11.80;99.90
14357;DHT22;7262;48.764;9.166;2023-03-21T22:39:14;11.70;99.90
14357;DHT22;7262;48.764;9.166;2023-03-21T22:41:45;11.70;99.90
14357;DHT22;7262;48.764;9.166;2023-03-21T22:44:14;11.70;99.90
14357;DHT22;7262;48.764;9.166;2023-03-21T22:46:41;11.80;99.90